createdAt,value
2017-07-15T00:00:56.783Z,13.40
2017-07-15T00:03:25.668Z,13.40
2017-07-15T00:05:54.603Z,13.30
2017-07-15T00:08:23.500Z,13.30
2017-07-15T00:10:53.155Z,13.50
2017-07-15T00:13:22.037Z,13.50
2017-07-15T00:15:50.936Z,13.60
2017-07-15T00:18:19.808Z,13.70
2017-07-15T00:20:48.660Z,13.70
2017-07-15T00:23:17.527Z,13.80
2017-07-15T00:25:46.429Z,13.80
2017-07-15T00:28:15.334Z,13.80
2017-07-15T00:30:44.220Z,13.90
2017-07-15T00:33:13.130Z,13.90
2017-07-15T00:35:42.806Z,13.90
2017-07-15T00:38:11.704Z,13.90
2017-07-15T00:40:40.606Z,13.90
2017-07-15T00:43:09.442Z,14.00
2017-07-15T00:45:38.310Z,14.00
2017-07-15T00:48:07.967Z,13.80
2017-07-15T00:50:36.870Z,13.80
2017-07-15T00:53:05.784Z,13.70
2017-07-15T00:55:34.680Z,13.80
2017-07-15T00:58:03.581Z,13.80
2017-07-15T01:00:33.253Z,13.90
2017-07-15T01:03:02.114Z,13.90
2017-07-15T01:05:31.009Z,13.90
2017-07-15T01:07:59.911Z,13.90
2017-07-15T01:10:28.822Z,14.00
2017-07-15T01:12:57.725Z,14.00
2017-07-15T01:15:26.630Z,14.00
2017-07-15T01:17:55.524Z,14.00
2017-07-15T01:20:24.416Z,14.00
2017-07-15T01:22:53.308Z,14.00
2017-07-15T01:25:22.209Z,14.00
2017-07-15T01:27:51.901Z,14.00
2017-07-15T01:30:20.787Z,14.00
2017-07-15T01:32:49.698Z,14.00
2017-07-15T01:35:19.366Z,14.10
2017-07-15T01:37:48.276Z,14.10
2017-07-15T01:40:17.184Z,14.10
2017-07-15T01:42:46.063Z,14.10
2017-07-15T01:45:14.969Z,14.10
2017-07-15T01:47:43.869Z,14.10
2017-07-15T01:50:13.184Z,14.20
2017-07-15T01:52:42.849Z,14.10
2017-07-15T01:55:11.748Z,14.10
2017-07-15T01:57:40.300Z,14.20
2017-07-15T02:00:08.869Z,14.10
2017-07-15T02:02:37.760Z,14.10
2017-07-15T02:05:06.690Z,14.10
2017-07-15T02:07:35.588Z,14.10
2017-07-15T02:10:04.488Z,14.10
2017-07-15T02:12:33.393Z,14.00
2017-07-15T02:15:02.288Z,14.00
2017-07-15T02:17:31.954Z,14.10
2017-07-15T02:20:00.820Z,14.00
2017-07-15T02:22:29.696Z,14.10
2017-07-15T02:24:59.374Z,14.10
2017-07-15T02:27:28.290Z,14.10
2017-07-15T02:29:57.961Z,14.20
2017-07-15T02:32:26.865Z,14.10
2017-07-15T02:34:55.760Z,14.10
2017-07-15T02:37:24.482Z,14.20
2017-07-15T02:39:54.170Z,14.00
2017-07-15T02:42:23.075Z,14.00
2017-07-15T02:44:52.748Z,13.90
2017-07-15T02:47:22.654Z,13.90
2017-07-15T02:49:51.556Z,14.00
2017-07-15T02:52:20.461Z,14.00
2017-07-15T02:54:49.360Z,14.10
2017-07-15T02:57:19.043Z,14.20
2017-07-15T02:59:47.929Z,14.20
2017-07-15T03:02:16.822Z,14.20
2017-07-15T03:04:45.690Z,14.30
2017-07-15T03:07:14.597Z,14.30
2017-07-15T03:09:43.510Z,14.20
2017-07-15T03:12:12.411Z,14.20
2017-07-15T03:14:41.319Z,14.20
2017-07-15T03:17:10.962Z,14.10
2017-07-15T03:19:39.181Z,14.10
2017-07-15T03:22:08.057Z,14.10
2017-07-15T03:24:36.961Z,14.20
2017-07-15T03:27:27.882Z,14.10
2017-07-15T03:29:56.786Z,14.10
2017-07-15T03:32:25.698Z,14.20
2017-07-15T03:34:54.575Z,14.20
2017-07-15T03:37:24.228Z,14.20
2017-07-15T03:39:52.786Z,14.10
2017-07-15T03:42:21.698Z,14.20
2017-07-15T03:44:50.592Z,14.20
2017-07-15T03:47:19.438Z,14.20
2017-07-15T03:49:48.330Z,14.30
2017-07-15T03:52:17.214Z,14.30
2017-07-15T03:54:46.114Z,14.40
2017-07-15T03:57:15.001Z,14.40
2017-07-15T03:59:43.892Z,14.50
2017-07-15T04:02:12.786Z,14.50
2017-07-15T04:04:42.413Z,14.50
2017-07-15T04:07:12.055Z,14.50
2017-07-15T04:09:40.923Z,14.50
2017-07-15T04:12:10.577Z,14.60
2017-07-15T04:14:39.485Z,14.60
2017-07-15T04:17:08.386Z,14.60
2017-07-15T04:19:37.283Z,14.70
2017-07-15T04:22:06.152Z,14.70
2017-07-15T04:24:35.065Z,14.80
2017-07-15T04:27:03.962Z,14.80
2017-07-15T04:29:33.642Z,14.90
2017-07-15T04:32:02.527Z,14.80
2017-07-15T04:34:31.428Z,14.90
2017-07-15T04:37:00.323Z,14.90
2017-07-15T04:39:29.198Z,14.90
2017-07-15T04:41:58.098Z,15.00
2017-07-15T04:44:26.960Z,15.00
2017-07-15T04:46:56.613Z,15.00
2017-07-15T04:49:25.505Z,15.00
2017-07-15T04:51:54.401Z,15.00
2017-07-15T04:54:23.302Z,15.00
2017-07-15T04:56:52.218Z,15.00
2017-07-15T04:59:21.880Z,15.00
2017-07-15T05:01:50.772Z,14.90
2017-07-15T05:04:19.661Z,14.90
2017-07-15T05:06:48.552Z,14.90
2017-07-15T05:09:17.417Z,14.90
2017-07-15T05:11:46.309Z,14.90
2017-07-15T05:14:15.179Z,14.80
2017-07-15T05:16:44.846Z,14.90
2017-07-15T05:19:13.754Z,14.80
2017-07-15T05:21:42.645Z,14.90
2017-07-15T05:24:11.547Z,14.90
2017-07-15T05:26:41.218Z,15.00
2017-07-15T05:29:10.121Z,15.00
2017-07-15T05:31:39.022Z,15.00
2017-07-15T05:34:07.904Z,15.00
2017-07-15T05:36:36.815Z,15.00
2017-07-15T05:39:05.365Z,15.00
2017-07-15T05:41:34.233Z,15.00
2017-07-15T05:44:03.142Z,15.10
2017-07-15T05:46:32.048Z,15.10
2017-07-15T05:49:00.966Z,15.10
2017-07-15T05:51:29.874Z,15.10
2017-07-15T05:53:59.522Z,15.20
2017-07-15T05:56:28.432Z,15.20
2017-07-15T05:58:57.339Z,15.20
2017-07-15T06:01:26.230Z,15.20
2017-07-15T06:03:55.099Z,15.30
2017-07-15T06:06:23.643Z,15.30
2017-07-15T06:08:52.543Z,15.30
2017-07-15T06:11:21.446Z,15.30
2017-07-15T06:13:50.342Z,15.40
2017-07-15T06:16:19.213Z,15.40
2017-07-15T06:18:48.126Z,15.40
2017-07-15T06:21:17.031Z,15.50
2017-07-15T06:23:45.921Z,15.50
2017-07-15T06:26:14.833Z,15.50
2017-07-15T06:28:43.732Z,15.50
2017-07-15T06:31:12.626Z,15.50
2017-07-15T06:33:41.497Z,15.40
2017-07-15T06:36:10.393Z,15.40
2017-07-15T06:38:40.394Z,15.50
2017-07-15T06:41:09.301Z,15.60
2017-07-15T06:43:38.197Z,15.60
2017-07-15T06:46:07.133Z,15.70
2017-07-15T06:48:36.044Z,15.70
2017-07-15T06:51:04.943Z,15.70
2017-07-15T06:53:33.854Z,15.70
2017-07-15T06:56:02.719Z,15.70
2017-07-15T06:58:31.581Z,15.80
2017-07-15T07:01:00.441Z,15.80
2017-07-15T07:03:29.341Z,15.80
2017-07-15T07:05:58.247Z,15.70
2017-07-15T07:08:27.150Z,15.80
2017-07-15T07:10:56.818Z,15.90
2017-07-15T07:13:25.682Z,15.90
2017-07-15T07:15:54.577Z,16.00
2017-07-15T07:18:23.485Z,16.00
2017-07-15T07:20:52.386Z,15.90
2017-07-15T07:23:21.281Z,15.90
2017-07-15T07:25:50.187Z,16.00
2017-07-15T07:28:19.102Z,16.00
2017-07-15T07:30:48.761Z,16.00
2017-07-15T07:33:17.656Z,16.00
2017-07-15T07:35:46.563Z,16.10
2017-07-15T07:38:15.460Z,16.00
2017-07-15T07:40:44.355Z,16.00
2017-07-15T07:43:13.214Z,16.00
2017-07-15T07:45:42.101Z,16.10
2017-07-15T07:48:11.006Z,16.20
2017-07-15T07:50:39.879Z,16.30
2017-07-15T07:53:08.753Z,16.40
2017-07-15T07:55:37.645Z,16.60
2017-07-15T07:58:06.533Z,16.70
2017-07-15T08:00:35.422Z,16.80
2017-07-15T08:03:05.070Z,17.10
2017-07-15T08:05:33.977Z,17.10
2017-07-15T08:08:02.839Z,17.20
2017-07-15T08:10:31.690Z,17.30
2017-07-15T08:13:00.538Z,17.50
2017-07-15T08:15:29.437Z,17.60
2017-07-15T08:17:58.325Z,17.70
2017-07-15T08:20:27.206Z,17.90
2017-07-15T08:22:56.090Z,17.90
2017-07-15T08:25:24.931Z,18.10
2017-07-15T08:27:53.830Z,18.20
2017-07-15T08:30:22.669Z,18.30
2017-07-15T08:32:51.540Z,18.20
2017-07-15T08:35:20.417Z,18.20
2017-07-15T08:37:49.268Z,18.20
2017-07-15T08:40:18.127Z,18.40
2017-07-15T08:42:47.022Z,18.60
2017-07-15T08:45:15.905Z,18.70
2017-07-15T08:47:44.784Z,18.60
2017-07-15T08:50:15.170Z,18.60
2017-07-15T08:52:44.048Z,18.60
2017-07-15T08:55:12.945Z,18.70
2017-07-15T08:57:41.839Z,18.80
2017-07-15T09:00:10.734Z,18.70
2017-07-15T09:02:39.617Z,18.70
2017-07-15T09:05:08.461Z,18.70
2017-07-15T09:07:38.114Z,18.80
2017-07-15T09:10:07.003Z,18.80
2017-07-15T09:12:35.892Z,18.90
2017-07-15T09:15:04.780Z,18.90
2017-07-15T09:17:33.662Z,18.80
2017-07-15T09:20:03.997Z,18.80
2017-07-15T09:22:32.869Z,18.70
2017-07-15T09:25:01.756Z,18.80
2017-07-15T09:27:30.651Z,18.80
2017-07-15T09:29:59.520Z,18.80
2017-07-15T09:32:29.148Z,19.10
2017-07-15T09:34:58.043Z,19.10
2017-07-15T09:37:26.940Z,19.30
2017-07-15T09:39:56.406Z,19.30
2017-07-15T09:42:25.286Z,19.50
2017-07-15T09:44:54.224Z,19.70
2017-07-15T09:47:23.118Z,19.90
2017-07-15T09:49:51.993Z,20.10
2017-07-15T09:52:20.876Z,20.30
2017-07-15T09:54:49.764Z,20.40
2017-07-15T09:57:19.411Z,20.30
2017-07-15T09:59:48.330Z,20.30
2017-07-15T10:02:17.203Z,20.40
2017-07-15T10:04:46.100Z,20.30
2017-07-15T10:07:14.954Z,20.20
2017-07-15T10:09:43.801Z,20.10
2017-07-15T10:12:12.701Z,20.10
2017-07-15T10:14:41.576Z,20.10
2017-07-15T10:17:10.467Z,20.10
2017-07-15T10:19:39.349Z,20.30
2017-07-15T10:22:08.229Z,20.40
2017-07-15T10:24:37.111Z,20.70
2017-07-15T10:27:05.992Z,20.80
2017-07-15T10:29:34.878Z,20.80
2017-07-15T10:32:03.761Z,20.90
2017-07-15T10:34:32.614Z,20.90
2017-07-15T10:37:01.492Z,20.80
2017-07-15T10:39:30.389Z,20.80
2017-07-15T10:41:59.283Z,20.70
2017-07-15T10:44:28.164Z,20.50
2017-07-15T10:46:57.108Z,20.50
2017-07-15T10:49:25.994Z,20.30
2017-07-15T10:54:39.491Z,20.30
2017-07-15T10:57:08.385Z,20.50
2017-07-15T10:59:37.265Z,20.70
2017-07-15T11:02:06.148Z,21.00
2017-07-15T11:04:35.023Z,21.10
2017-07-15T11:07:03.913Z,21.30
2017-07-15T11:09:33.570Z,21.60
2017-07-15T11:12:02.619Z,21.60
2017-07-15T11:14:31.514Z,21.90
2017-07-15T11:17:00.696Z,22.20
2017-07-15T11:19:30.353Z,22.50
2017-07-15T11:21:59.243Z,22.50
2017-07-15T11:24:28.111Z,22.60
2017-07-15T11:26:57.013Z,22.70
2017-07-15T11:29:25.901Z,22.60
2017-07-15T11:31:54.777Z,22.80
2017-07-15T11:34:23.681Z,23.00
2017-07-15T11:36:52.566Z,22.80
2017-07-15T11:39:21.460Z,22.60
2017-07-15T11:41:50.345Z,22.40
2017-07-15T11:44:19.238Z,22.00
2017-07-15T11:46:48.133Z,21.80
2017-07-15T11:49:17.031Z,21.60
2017-07-15T11:51:45.923Z,21.60
2017-07-15T11:54:14.804Z,21.70
2017-07-15T11:56:46.594Z,21.80
2017-07-15T11:59:15.507Z,21.80
2017-07-15T12:01:44.389Z,21.70
2017-07-15T12:04:13.282Z,21.60
2017-07-15T12:06:42.180Z,21.60
2017-07-15T12:09:11.078Z,21.60
2017-07-15T12:11:39.928Z,21.70
2017-07-15T12:14:08.810Z,21.80
2017-07-15T12:16:37.703Z,21.70
2017-07-15T12:19:06.588Z,21.60
2017-07-15T12:21:35.474Z,21.40
2017-07-15T12:24:05.089Z,21.20
2017-07-15T12:26:33.981Z,21.20
2017-07-15T12:29:02.867Z,21.20
2017-07-15T12:31:31.762Z,21.20
2017-07-15T12:34:00.641Z,21.50
2017-07-15T12:36:30.294Z,21.50
2017-07-15T12:38:59.148Z,21.50
2017-07-15T12:41:28.019Z,21.40
2017-07-15T12:43:56.911Z,21.10
2017-07-15T12:46:25.831Z,20.90
2017-07-15T12:48:54.708Z,20.80
2017-07-15T12:51:24.354Z,20.80
2017-07-15T12:53:53.248Z,20.80
2017-07-15T12:56:22.137Z,20.70
2017-07-15T12:58:51.010Z,20.70
2017-07-15T13:01:19.894Z,20.70
2017-07-15T13:03:49.554Z,20.90
2017-07-15T13:06:18.449Z,20.90
2017-07-15T13:08:47.343Z,21.10
2017-07-15T13:11:16.216Z,21.30
2017-07-15T13:13:45.111Z,21.40
2017-07-15T13:16:14.003Z,21.40
2017-07-15T13:18:42.885Z,21.70
2017-07-15T13:21:12.914Z,22.00
2017-07-15T13:23:44.523Z,22.30
2017-07-15T14:54:13.564Z,23.30
2017-07-15T14:56:42.457Z,23.20
2017-07-15T14:59:12.301Z,23.30
2017-07-15T15:01:41.198Z,23.30
2017-07-15T15:04:10.080Z,23.30
2017-07-15T15:06:38.965Z,23.20
2017-07-15T15:09:07.856Z,23.00
2017-07-15T15:11:36.741Z,23.00
2017-07-15T15:14:05.649Z,23.10
2017-07-15T15:16:34.533Z,23.10
2017-07-15T15:19:03.455Z,23.10
2017-07-15T15:21:32.328Z,23.10
2017-07-15T15:24:01.203Z,23.00
2017-07-15T15:26:30.112Z,22.90
2017-07-15T15:28:59.005Z,22.90
2017-07-15T15:31:27.911Z,22.80
2017-07-15T15:33:56.807Z,22.60
2017-07-15T15:36:25.680Z,22.60
2017-07-15T15:38:54.598Z,22.70
2017-07-15T15:41:25.651Z,23.10
2017-07-15T15:43:55.316Z,23.00
2017-07-15T15:46:24.513Z,23.00
2017-07-15T15:48:53.402Z,22.90
2017-07-15T15:51:22.287Z,23.10
2017-07-15T15:53:51.165Z,22.90
2017-07-15T15:56:20.389Z,23.00
2017-07-15T15:58:49.279Z,22.90
2017-07-15T16:01:18.177Z,22.80
2017-07-15T16:03:47.069Z,22.90
2017-07-15T16:06:15.949Z,22.90
2017-07-15T16:08:44.850Z,22.80
2017-07-15T16:11:13.736Z,22.70
2017-07-15T16:13:42.624Z,22.80
2017-07-15T16:16:11.518Z,22.80
2017-07-15T16:18:40.418Z,22.70
2017-07-15T16:21:10.566Z,22.60
2017-07-15T16:23:41.017Z,22.10
2017-07-15T16:26:09.913Z,22.10
2017-07-15T16:28:38.768Z,21.90
2017-07-15T16:31:07.657Z,21.50
2017-07-15T16:33:36.544Z,21.30
2017-07-15T16:36:05.929Z,21.00
2017-07-15T16:38:34.882Z,20.70
2017-07-15T16:41:03.781Z,20.70
2017-07-15T16:43:32.675Z,20.50
2017-07-15T16:46:01.564Z,20.40
2017-07-15T16:48:30.445Z,20.50
2017-07-15T16:51:00.110Z,20.30
2017-07-15T16:53:29.001Z,20.20
2017-07-15T16:55:57.877Z,19.80
2017-07-15T16:58:27.745Z,19.40
2017-07-15T17:00:57.410Z,18.60
2017-07-15T17:03:26.296Z,18.60
2017-07-15T17:05:55.187Z,18.30
2017-07-15T17:08:24.069Z,18.10
2017-07-15T17:10:52.961Z,18.10
2017-07-15T17:13:21.854Z,18.00
2017-07-15T17:15:50.731Z,17.90
2017-07-15T17:18:19.645Z,17.80
2017-07-15T17:20:48.553Z,17.80
2017-07-15T17:23:17.454Z,17.80
2017-07-15T17:25:46.333Z,17.80
2017-07-15T17:28:15.221Z,17.70
2017-07-15T17:30:44.118Z,17.70
2017-07-15T17:33:13.011Z,17.70
2017-07-15T17:35:41.892Z,17.70
2017-07-15T17:38:10.745Z,17.50
2017-07-15T17:40:39.634Z,17.50
2017-07-15T17:43:08.480Z,17.60
2017-07-15T17:45:38.299Z,17.50
2017-07-15T17:48:06.849Z,17.30
2017-07-15T17:50:35.734Z,17.20
2017-07-15T17:53:04.609Z,17.20
2017-07-15T17:55:33.486Z,17.20
2017-07-15T17:58:02.356Z,17.10
2017-07-15T18:00:31.245Z,17.00
2017-07-15T18:03:00.239Z,17.00
2017-07-15T18:05:29.121Z,17.00
2017-07-15T18:07:58.101Z,16.90
2017-07-15T18:10:26.979Z,16.80
2017-07-15T18:12:55.862Z,16.80
2017-07-15T18:15:24.745Z,16.80
2017-07-15T18:17:53.630Z,16.80
2017-07-15T18:20:22.500Z,16.80
2017-07-15T18:22:51.393Z,16.80
2017-07-15T18:25:21.194Z,16.90
2017-07-15T18:27:50.095Z,16.90
2017-07-15T18:30:18.981Z,16.90
2017-07-15T18:32:48.625Z,16.90
2017-07-15T18:35:18.354Z,16.90
2017-07-15T18:38:28.765Z,16.80
2017-07-15T18:43:52.442Z,16.70
2017-07-15T18:49:18.950Z,16.60
2017-07-15T18:51:47.821Z,16.50
2017-07-15T18:54:17.470Z,16.40
2017-07-15T18:56:46.369Z,16.30
2017-07-15T18:59:15.472Z,16.30
2017-07-15T19:01:45.327Z,16.40
2017-07-15T19:04:14.273Z,16.40
2017-07-15T19:06:43.235Z,16.30
2017-07-15T19:09:12.254Z,16.30
2017-07-15T19:11:41.226Z,16.20
2017-07-15T19:14:18.417Z,16.30
2017-07-15T19:16:47.343Z,16.40
2017-07-15T19:19:17.073Z,16.40
2017-07-15T19:21:46.736Z,16.30
2017-07-15T19:24:15.605Z,16.30
2017-07-15T19:26:44.497Z,16.40
2017-07-15T19:29:13.391Z,16.40
2017-07-15T19:31:42.239Z,16.50
2017-07-15T19:34:11.083Z,16.40
2017-07-15T19:36:39.973Z,16.40
2017-07-15T19:39:09.617Z,16.40
2017-07-15T19:41:38.506Z,16.40
2017-07-15T19:44:07.392Z,16.40
2017-07-15T19:46:36.286Z,16.40
2017-07-15T19:49:05.174Z,16.40
2017-07-15T19:51:34.031Z,16.40
2017-07-15T19:54:02.918Z,16.40
2017-07-15T19:56:31.810Z,16.50
2017-07-15T19:59:00.695Z,16.50
2017-07-15T20:01:30.341Z,16.50
2017-07-15T20:03:59.229Z,16.50
2017-07-15T20:06:28.113Z,16.50
2017-07-15T20:08:56.982Z,16.50
2017-07-15T20:11:25.873Z,16.60
2017-07-15T20:13:54.759Z,16.50
2017-07-15T20:16:23.638Z,16.50
2017-07-15T20:18:53.321Z,16.50
2017-07-15T20:21:22.206Z,16.60
2017-07-15T20:23:51.184Z,16.50
2017-07-15T20:26:20.195Z,16.50
2017-07-15T20:28:49.101Z,16.60
2017-07-15T20:31:17.998Z,16.60
2017-07-15T20:33:46.958Z,16.60
2017-07-15T20:36:21.347Z,16.60
2017-07-15T20:38:50.775Z,16.60
2017-07-15T20:41:19.619Z,16.60
2017-07-15T20:43:49.861Z,16.60
2017-07-15T20:46:18.823Z,16.50
2017-07-15T20:48:48.505Z,16.40
2017-07-15T20:51:17.428Z,16.40
2017-07-15T20:53:53.163Z,16.40
2017-07-15T20:56:22.100Z,16.40
2017-07-15T20:58:52.078Z,16.40
2017-07-15T21:01:21.142Z,16.40
2017-07-15T21:03:51.611Z,16.40
2017-07-15T21:06:21.350Z,16.40
2017-07-15T21:08:50.426Z,16.50
2017-07-15T21:11:19.446Z,16.50
2017-07-15T21:13:48.468Z,16.40
2017-07-15T21:16:17.572Z,16.40
2017-07-15T21:18:47.612Z,16.40
2017-07-15T21:21:16.815Z,16.40
2017-07-15T21:23:46.601Z,16.40
2017-07-15T21:26:15.635Z,16.40
2017-07-15T21:28:45.551Z,16.30
2017-07-15T21:31:14.449Z,16.30
2017-07-15T21:33:44.128Z,16.30
2017-07-15T21:36:13.020Z,16.30
2017-07-15T21:38:41.971Z,16.30
2017-07-15T21:41:10.882Z,16.30
2017-07-15T21:43:39.790Z,16.20
2017-07-15T21:46:08.653Z,16.20
2017-07-15T21:48:37.547Z,16.10
2017-07-15T21:51:06.440Z,16.10
2017-07-15T21:53:35.336Z,16.10
2017-07-15T21:56:04.229Z,16.00
2017-07-15T21:58:33.123Z,16.00
2017-07-15T22:01:03.635Z,16.00
2017-07-15T22:03:32.529Z,16.00
2017-07-15T22:06:01.429Z,16.00
2017-07-15T22:08:30.285Z,16.00
2017-07-15T22:10:59.965Z,16.10
2017-07-15T22:13:28.864Z,16.10
2017-07-15T22:15:57.756Z,16.10
2017-07-15T22:18:26.659Z,16.20
2017-07-15T22:20:56.321Z,16.20
2017-07-15T22:23:25.215Z,16.10
2017-07-15T22:25:54.107Z,16.20
2017-07-15T22:28:23.011Z,16.20
2017-07-15T22:30:51.989Z,16.20
2017-07-15T22:33:21.758Z,16.20
2017-07-15T22:35:51.452Z,16.20
2017-07-15T22:38:20.372Z,16.20
2017-07-15T22:40:49.282Z,16.20
2017-07-15T22:43:18.191Z,16.20
2017-07-15T22:45:47.116Z,16.20
2017-07-15T22:48:16.675Z,16.20
2017-07-15T22:50:45.594Z,16.20
2017-07-15T22:53:14.513Z,16.10
2017-07-15T22:55:43.423Z,16.10
2017-07-15T22:58:12.339Z,16.10
2017-07-15T23:00:41.244Z,16.10
2017-07-15T23:03:10.911Z,16.10
2017-07-15T23:05:40.604Z,16.10
2017-07-15T23:08:09.810Z,16.10
2017-07-15T23:10:39.160Z,16.10
2017-07-15T23:13:08.068Z,16.10
2017-07-15T23:15:36.988Z,16.10
2017-07-15T23:18:05.861Z,16.10
2017-07-15T23:20:34.777Z,16.10
2017-07-15T23:23:03.693Z,16.10
2017-07-15T23:25:33.368Z,16.10
2017-07-15T23:28:02.280Z,16.10
2017-07-15T23:30:31.971Z,16.10
2017-07-15T23:33:00.904Z,16.00
2017-07-15T23:35:30.579Z,16.00
2017-07-15T23:37:59.492Z,16.00
2017-07-15T23:40:29.182Z,16.00
2017-07-15T23:42:58.088Z,16.00
2017-07-15T23:45:26.993Z,16.00
2017-07-15T23:47:56.668Z,15.90
2017-07-15T23:50:25.569Z,15.90
2017-07-15T23:52:55.173Z,15.90
2017-07-15T23:55:24.085Z,15.80
2017-07-15T23:57:53.758Z,15.80
